createdAt,value
2022-11-16T00:02:22.618Z,8.96
2022-11-16T00:04:49.395Z,8.69
2022-11-16T00:07:16.193Z,8.75
2022-11-16T00:09:42.939Z,8.38
2022-11-16T00:12:11.248Z,8.46
2022-11-16T00:14:38.022Z,8.57
2022-11-16T00:17:05.105Z,8.59
2022-11-16T00:19:31.958Z,8.55
2022-11-16T00:21:59.071Z,8.67
2022-11-16T00:24:25.754Z,8.68
2022-11-16T00:26:54.421Z,8.52
2022-11-16T00:29:23.416Z,8.39
2022-11-16T00:31:54.098Z,8.39
2022-11-16T00:34:22.110Z,8.48
2022-11-16T00:36:48.913Z,8.51
2022-11-16T00:39:16.592Z,8.61
2022-11-16T00:41:45.705Z,8.55
2022-11-16T00:44:12.532Z,8.59
2022-11-16T00:46:39.731Z,8.57
2022-11-16T00:49:06.796Z,8.56
2022-11-16T00:51:34.722Z,8.56
2022-11-16T00:54:02.235Z,8.56
2022-11-16T00:56:29.626Z,8.49
2022-11-16T00:58:56.456Z,8.43
2022-11-16T01:01:23.302Z,8.36
2022-11-16T01:03:51.038Z,8.42
2022-11-16T01:06:20.403Z,8.37
2022-11-16T01:08:47.323Z,8.40
2022-11-16T01:11:34.049Z,8.36
2022-11-16T01:14:03.552Z,8.40
2022-11-16T01:16:30.704Z,8.56
2022-11-16T01:18:57.559Z,8.59
2022-11-16T01:21:25.292Z,8.64
2022-11-16T01:23:52.159Z,8.64
2022-11-16T01:26:19.115Z,8.43
2022-11-16T01:28:45.861Z,8.43
2022-11-16T01:31:13.333Z,8.60
2022-11-16T01:33:41.285Z,8.74
2022-11-16T01:36:17.492Z,8.66
2022-11-16T01:38:45.866Z,8.62
2022-11-16T01:41:21.057Z,8.57
2022-11-16T01:44:06.040Z,8.55
2022-11-16T01:46:44.337Z,8.41
2022-11-16T01:49:15.971Z,8.39
2022-11-16T01:51:44.811Z,8.46
2022-11-16T01:54:13.471Z,8.44
2022-11-16T01:56:51.107Z,8.48
2022-11-16T01:59:29.535Z,8.51
2022-11-16T02:01:59.866Z,8.52
2022-11-16T02:04:26.975Z,8.52
2022-11-16T02:07:04.817Z,8.48
2022-11-16T02:09:59.015Z,8.38
2022-11-16T02:12:54.696Z,8.26
2022-11-16T02:15:36.702Z,8.29
2022-11-16T02:18:22.747Z,8.28
2022-11-16T02:21:06.600Z,8.39
2022-11-16T02:23:43.446Z,8.47
2022-11-16T02:26:44.109Z,8.49
2022-11-16T02:29:30.428Z,8.48
2022-11-16T02:32:11.713Z,8.44
2022-11-16T02:34:42.378Z,8.22
2022-11-16T02:37:11.438Z,8.17
2022-11-16T02:39:39.220Z,8.22
2022-11-16T02:42:10.859Z,8.14
2022-11-16T02:44:43.501Z,8.13
2022-11-16T02:47:13.890Z,8.07
2022-11-16T02:49:45.816Z,7.88
2022-11-16T02:52:15.308Z,7.81
2022-11-16T02:54:42.512Z,7.77
2022-11-16T02:57:09.493Z,7.74
2022-11-16T02:59:43.498Z,7.59
2022-11-16T03:02:53.865Z,7.70
2022-11-16T03:05:34.632Z,7.79
2022-11-16T03:08:32.743Z,7.61
2022-11-16T03:11:24.137Z,7.61
2022-11-16T03:13:56.471Z,7.71
2022-11-16T03:16:26.951Z,7.65
2022-11-16T03:18:55.964Z,7.59
2022-11-16T03:21:49.930Z,7.54
2022-11-16T03:24:18.254Z,7.60
2022-11-16T03:27:26.511Z,7.68
2022-11-16T03:30:00.420Z,7.48
2022-11-16T03:32:33.884Z,7.37
2022-11-16T03:35:11.283Z,7.44
2022-11-16T03:37:38.951Z,7.40
2022-11-16T03:40:06.856Z,7.41
2022-11-16T03:42:34.834Z,7.50
2022-11-16T03:45:02.261Z,7.49
2022-11-16T03:47:29.030Z,7.61
2022-11-16T03:49:55.837Z,7.74
2022-11-16T03:52:24.106Z,7.73
2022-11-16T03:54:51.256Z,7.75
2022-11-16T03:57:18.766Z,7.73
2022-11-16T03:59:51.597Z,7.76
2022-11-16T04:02:18.408Z,7.70
2022-11-16T04:05:04.208Z,7.63
2022-11-16T04:07:49.570Z,7.39
2022-11-16T04:10:35.018Z,7.52
2022-11-16T04:13:22.422Z,7.51
2022-11-16T04:16:08.694Z,7.63
2022-11-16T04:18:54.069Z,7.55
2022-11-16T04:21:45.387Z,7.50
2022-11-16T04:24:17.821Z,7.59
2022-11-16T04:27:06.872Z,7.62
2022-11-16T04:29:34.203Z,7.67
2022-11-16T04:32:19.576Z,7.66
2022-11-16T04:35:05.008Z,7.50
2022-11-16T04:37:50.302Z,7.67
2022-11-16T04:40:24.303Z,7.45
2022-11-16T04:43:09.232Z,7.49
2022-11-16T04:45:58.070Z,7.59
2022-11-16T04:48:30.287Z,7.62
2022-11-16T04:50:57.067Z,7.46
2022-11-16T04:53:27.224Z,7.42
2022-11-16T04:56:23.424Z,7.49
2022-11-16T04:58:50.305Z,7.53
2022-11-16T05:01:17.245Z,7.63
2022-11-16T05:03:44.139Z,7.71
2022-11-16T05:06:10.887Z,7.76
2022-11-16T05:08:37.712Z,7.69
2022-11-16T05:11:05.527Z,7.48
2022-11-16T05:13:32.786Z,7.65
2022-11-16T05:16:00.563Z,7.72
2022-11-16T05:18:27.354Z,7.75
2022-11-16T05:21:03.285Z,7.75
2022-11-16T05:23:54.286Z,7.73
2022-11-16T05:26:23.169Z,7.76
2022-11-16T05:28:51.105Z,7.72
2022-11-16T05:31:18.164Z,7.75
2022-11-16T05:33:45.255Z,7.85
2022-11-16T05:36:14.662Z,7.80
2022-11-16T05:38:41.511Z,7.88
2022-11-16T05:41:08.366Z,7.75
2022-11-16T05:43:35.141Z,7.79
2022-11-16T05:46:11.117Z,7.83
2022-11-16T05:48:38.800Z,7.88
2022-11-16T05:51:06.438Z,7.86
2022-11-16T05:53:34.475Z,7.85
2022-11-16T05:56:01.269Z,7.89
2022-11-16T05:58:29.245Z,7.92
2022-11-16T06:00:58.362Z,8.05
2022-11-16T06:03:25.319Z,7.99
2022-11-16T06:05:55.316Z,7.97
2022-11-16T06:08:24.918Z,8.10
2022-11-16T06:10:53.444Z,8.16
2022-11-16T06:13:20.445Z,8.15
2022-11-16T06:15:52.989Z,8.03
2022-11-16T06:18:19.895Z,8.07
2022-11-16T06:20:48.431Z,8.00
2022-11-16T06:23:15.309Z,8.06
2022-11-16T06:25:42.262Z,8.08
2022-11-16T06:28:09.783Z,8.12
2022-11-16T06:30:38.370Z,8.11
2022-11-16T06:33:06.655Z,8.07
2022-11-16T06:35:33.524Z,8.09
2022-11-16T06:38:00.850Z,8.02
2022-11-16T06:40:27.626Z,8.17
2022-11-16T06:42:54.394Z,8.26
2022-11-16T06:45:21.641Z,8.23
2022-11-16T06:47:52.990Z,8.14
2022-11-16T06:50:19.956Z,8.13
2022-11-16T06:52:48.279Z,8.30
2022-11-16T06:55:16.250Z,8.34
2022-11-16T06:57:43.257Z,8.40
2022-11-16T07:00:11.526Z,8.47
2022-11-16T07:02:39.400Z,8.41
2022-11-16T07:05:09.658Z,8.42
2022-11-16T07:07:36.830Z,8.21
2022-11-16T07:10:04.332Z,8.33
2022-11-16T07:12:32.472Z,8.43
2022-11-16T07:15:00.600Z,8.35
2022-11-16T07:17:29.999Z,8.27
2022-11-16T07:19:59.178Z,8.28
2022-11-16T07:22:26.156Z,8.31
2022-11-16T07:24:53.756Z,8.35
2022-11-16T07:27:21.397Z,8.39
2022-11-16T07:29:50.669Z,8.40
2022-11-16T07:32:36.077Z,8.59
2022-11-16T07:35:29.278Z,8.53
2022-11-16T07:37:56.260Z,8.45
2022-11-16T07:40:23.099Z,8.54
2022-11-16T07:42:50.125Z,8.69
2022-11-16T07:45:46.122Z,8.72
2022-11-16T07:48:12.938Z,8.70
2022-11-16T07:51:14.028Z,8.84
2022-11-16T07:53:47.035Z,8.71
2022-11-16T07:56:13.737Z,8.90
2022-11-16T07:58:41.802Z,8.86
2022-11-16T08:01:15.253Z,8.81
2022-11-16T08:03:44.459Z,8.83
2022-11-16T08:06:32.480Z,8.67
2022-11-16T08:08:59.733Z,8.59
2022-11-16T08:11:28.570Z,8.59
2022-11-16T08:13:57.162Z,8.68
2022-11-16T08:16:24.696Z,8.79
2022-11-16T08:19:00.976Z,8.51
2022-11-16T08:21:27.930Z,8.57
2022-11-16T08:23:58.335Z,8.54
2022-11-16T08:26:26.128Z,8.59
2022-11-16T08:28:58.581Z,8.48
2022-11-16T08:31:30.209Z,8.54
2022-11-16T08:34:08.003Z,8.51
2022-11-16T08:36:36.459Z,8.52
2022-11-16T08:39:03.810Z,8.54
2022-11-16T08:41:32.218Z,8.32
2022-11-16T08:44:01.258Z,8.35
2022-11-16T08:46:30.093Z,8.50
2022-11-16T08:49:07.237Z,8.54
2022-11-16T08:51:34.269Z,8.41
2022-11-16T08:54:05.388Z,8.39
2022-11-16T08:56:35.352Z,8.39
2022-11-16T08:59:05.231Z,8.44
2022-11-16T09:01:33.062Z,8.27
2022-11-16T09:04:01.575Z,8.38
2022-11-16T09:06:29.439Z,8.46
2022-11-16T09:08:58.743Z,8.54
2022-11-16T09:11:28.408Z,8.55
2022-11-16T09:13:56.182Z,8.43
2022-11-16T09:16:23.782Z,8.38
2022-11-16T09:18:51.459Z,8.41
2022-11-16T09:21:20.576Z,8.48
2022-11-16T09:23:48.219Z,8.48
2022-11-16T09:26:15.434Z,8.42
2022-11-16T09:28:42.860Z,8.31
2022-11-16T09:31:10.389Z,8.30
2022-11-16T09:33:37.427Z,8.33
2022-11-16T09:36:07.372Z,8.33
2022-11-16T09:39:03.315Z,8.48
2022-11-16T09:41:37.423Z,8.31
2022-11-16T09:44:08.206Z,8.34
2022-11-16T09:46:38.759Z,8.30
2022-11-16T09:49:19.993Z,8.35
2022-11-16T09:51:53.751Z,8.53
2022-11-16T09:54:23.172Z,8.62
2022-11-16T09:56:52.859Z,8.53
2022-11-16T09:59:28.971Z,8.38
2022-11-16T10:01:58.724Z,8.41
2022-11-16T10:04:28.471Z,8.39
2022-11-16T10:07:02.059Z,8.39
2022-11-16T10:09:29.759Z,8.39
2022-11-16T10:12:28.928Z,8.38
2022-11-16T10:15:23.728Z,8.37
2022-11-16T10:18:02.678Z,8.36
2022-11-16T10:20:58.252Z,8.41
2022-11-16T10:23:50.949Z,8.44
2022-11-16T10:26:28.644Z,8.38
2022-11-16T10:29:05.309Z,8.31
2022-11-16T10:31:48.787Z,8.39
2022-11-16T10:34:23.654Z,8.40
2022-11-16T10:36:50.708Z,8.33
2022-11-16T10:39:20.288Z,8.42
2022-11-16T10:41:50.851Z,8.31
2022-11-16T10:44:33.735Z,8.31
2022-11-16T10:47:06.638Z,8.33
2022-11-16T10:49:37.872Z,8.35
2022-11-16T10:52:05.028Z,8.26
2022-11-16T10:54:31.777Z,8.36
2022-11-16T10:57:05.241Z,8.40
2022-11-16T10:59:42.060Z,8.46
2022-11-16T11:02:34.897Z,8.42
2022-11-16T11:05:03.514Z,8.38
2022-11-16T11:07:32.977Z,8.42
2022-11-16T11:09:59.904Z,8.40
2022-11-16T11:12:39.872Z,8.36
2022-11-16T11:15:13.510Z,8.44
2022-11-16T11:17:47.301Z,8.30
2022-11-16T11:20:17.272Z,8.46
2022-11-16T11:22:56.146Z,8.55
2022-11-16T11:25:30.362Z,8.45
2022-11-16T11:28:22.246Z,8.42
2022-11-16T11:31:30.430Z,8.40
2022-11-16T11:34:05.415Z,8.45
2022-11-16T11:36:43.548Z,8.47
2022-11-16T11:39:13.489Z,8.48
2022-11-16T11:41:44.649Z,8.32
2022-11-16T11:44:18.282Z,8.28
2022-11-16T11:47:42.755Z,8.24
2022-11-16T11:49:42.494Z,8.30
2022-11-16T11:52:19.030Z,8.39
2022-11-16T11:54:49.583Z,8.27
2022-11-16T11:57:22.275Z,8.28
2022-11-16T11:59:51.002Z,8.20
2022-11-16T12:02:46.470Z,8.29
2022-11-16T12:05:29.617Z,8.41
2022-11-16T12:08:04.773Z,8.50
2022-11-16T12:10:40.607Z,8.49
2022-11-16T12:13:16.677Z,8.48
2022-11-16T12:15:49.769Z,8.49
2022-11-16T12:19:01.568Z,8.44
2022-11-16T12:21:50.838Z,8.26
2022-11-16T12:24:23.597Z,8.32
2022-11-16T12:27:07.451Z,8.31
2022-11-16T12:30:01.312Z,8.15
2022-11-16T12:32:36.944Z,8.24
2022-11-16T12:35:25.334Z,8.26
2022-11-16T12:38:15.271Z,8.32
2022-11-16T12:40:55.917Z,8.27
2022-11-16T12:43:43.953Z,8.33
2022-11-16T12:46:42.745Z,8.31
2022-11-16T12:49:24.484Z,8.41
2022-11-16T12:52:06.494Z,8.48
2022-11-16T12:55:28.213Z,8.43
2022-11-16T12:58:20.841Z,8.31
2022-11-16T13:01:16.158Z,8.22
2022-11-16T13:03:50.136Z,8.38
2022-11-16T13:06:21.905Z,8.34
2022-11-16T13:09:06.875Z,8.35
2022-11-16T13:11:47.438Z,8.52
2022-11-16T13:14:19.858Z,8.40
2022-11-16T13:16:48.088Z,8.50
2022-11-16T13:19:16.113Z,8.52
2022-11-16T13:21:51.977Z,8.44
2022-11-16T13:24:30.812Z,8.31
2022-11-16T13:27:13.038Z,8.26
2022-11-16T13:30:05.290Z,8.32
2022-11-16T13:32:48.467Z,8.47
2022-11-16T13:35:17.057Z,8.45
2022-11-16T13:37:45.481Z,8.41
2022-11-16T13:40:25.115Z,8.38
2022-11-16T13:43:02.433Z,8.46
2022-11-16T13:45:40.350Z,8.68
2022-11-16T13:48:20.215Z,8.64
2022-11-16T13:50:50.210Z,8.55
2022-11-16T13:56:24.158Z,8.65
2022-11-16T13:58:55.982Z,8.53
2022-11-16T14:01:24.106Z,8.68
2022-11-16T14:03:52.122Z,8.70
2022-11-16T14:06:25.113Z,8.65
2022-11-16T14:08:55.733Z,8.65
2022-11-16T14:11:37.431Z,8.66
2022-11-16T14:14:42.387Z,8.53
2022-11-16T14:17:09.074Z,8.58
2022-11-16T14:19:47.627Z,8.65
2022-11-16T14:22:36.483Z,8.72
2022-11-16T14:25:16.663Z,8.63
2022-11-16T14:27:52.133Z,8.74
2022-11-16T14:30:28.945Z,8.74
2022-11-16T14:32:56.578Z,8.70
2022-11-16T14:35:30.410Z,8.81
2022-11-16T14:37:58.841Z,8.74
2022-11-16T14:40:25.799Z,8.87
2022-11-16T14:46:01.098Z,8.95
2022-11-16T14:48:30.758Z,8.95
2022-11-16T14:51:21.273Z,8.86
2022-11-16T14:53:50.776Z,8.65
2022-11-16T14:56:21.885Z,8.78
2022-11-16T14:59:17.571Z,8.92
2022-11-16T15:01:44.917Z,8.79
2022-11-16T15:04:16.743Z,8.75
2022-11-16T15:06:50.162Z,8.83
2022-11-16T15:09:22.018Z,8.95
2022-11-16T15:12:08.639Z,8.84
2022-11-16T15:14:40.502Z,8.80
2022-11-16T15:17:09.149Z,8.76
2022-11-16T15:19:36.402Z,8.73
2022-11-16T15:22:04.726Z,8.68
2022-11-16T15:24:33.557Z,8.70
2022-11-16T15:27:19.156Z,8.71
2022-11-16T15:29:46.097Z,8.71
2022-11-16T15:32:15.973Z,8.85
2022-11-16T15:34:47.694Z,8.92
2022-11-16T15:37:15.458Z,8.89
2022-11-16T15:39:43.024Z,8.74
2022-11-16T15:42:14.044Z,8.76
2022-11-16T15:44:41.342Z,8.76
2022-11-16T15:47:10.490Z,8.87
2022-11-16T15:49:38.471Z,8.87
2022-11-16T15:52:05.952Z,8.74
2022-11-16T15:54:52.758Z,8.72
2022-11-16T15:57:20.868Z,8.86
2022-11-16T15:59:54.789Z,8.85
2022-11-16T16:02:23.257Z,8.76
2022-11-16T16:04:50.175Z,8.71
2022-11-16T16:07:39.919Z,8.62
2022-11-16T16:10:24.005Z,8.54
2022-11-16T16:13:01.277Z,8.47
2022-11-16T16:15:34.228Z,8.33
2022-11-16T16:18:02.531Z,8.45
2022-11-16T16:20:31.501Z,8.53
2022-11-16T16:23:16.609Z,8.45
2022-11-16T16:25:49.010Z,8.46
2022-11-16T16:28:16.972Z,8.53
2022-11-16T16:30:44.038Z,8.56
2022-11-16T16:33:18.744Z,8.49
2022-11-16T16:35:49.920Z,8.57
2022-11-16T16:38:17.113Z,8.54
2022-11-16T16:40:43.927Z,8.61
2022-11-16T16:43:14.089Z,8.62
2022-11-16T16:45:43.911Z,8.52
2022-11-16T16:48:14.449Z,8.61
2022-11-16T16:50:41.205Z,8.65
2022-11-16T16:53:11.568Z,8.56
2022-11-16T16:55:38.553Z,8.59
2022-11-16T16:58:05.864Z,8.65
2022-11-16T17:00:33.026Z,8.64
2022-11-16T17:02:59.736Z,8.61
2022-11-16T17:05:26.685Z,8.48
2022-11-16T17:07:56.782Z,8.44
2022-11-16T17:10:24.164Z,8.56
2022-11-16T17:12:54.115Z,8.61
2022-11-16T17:15:21.087Z,8.30
2022-11-16T17:17:48.580Z,8.31
2022-11-16T17:20:16.465Z,8.38
2022-11-16T17:22:45.709Z,8.24
2022-11-16T17:25:12.511Z,8.31
2022-11-16T17:27:39.684Z,8.30
2022-11-16T17:30:07.654Z,8.16
2022-11-16T17:32:34.525Z,8.16
2022-11-16T17:35:02.388Z,8.25
2022-11-16T17:37:29.261Z,8.29
2022-11-16T17:39:56.072Z,8.29
2022-11-16T17:42:22.840Z,8.09
2022-11-16T17:44:50.040Z,8.14
2022-11-16T17:47:16.869Z,8.12
2022-11-16T17:49:43.921Z,8.21
2022-11-16T17:52:11.162Z,8.14
2022-11-16T17:54:38.121Z,8.21
2022-11-16T17:57:04.965Z,8.19
2022-11-16T17:59:31.838Z,8.22
2022-11-16T18:01:58.927Z,8.35
2022-11-16T18:04:25.772Z,8.41
2022-11-16T18:06:52.711Z,8.41
2022-11-16T18:09:19.659Z,8.34
2022-11-16T18:11:46.507Z,8.36
2022-11-16T18:14:13.872Z,8.13
2022-11-16T18:16:43.345Z,8.19
2022-11-16T18:19:16.192Z,8.35
2022-11-16T18:21:43.134Z,8.08
2022-11-16T18:24:17.017Z,8.13
2022-11-16T18:26:45.840Z,8.19
2022-11-16T18:29:15.970Z,8.17
2022-11-16T18:31:43.106Z,8.24
2022-11-16T18:34:12.477Z,8.16
2022-11-16T18:36:39.245Z,8.23
2022-11-16T18:39:07.297Z,8.15
2022-11-16T18:41:34.658Z,8.07
2022-11-16T18:44:02.041Z,8.03
2022-11-16T18:46:31.090Z,8.10
2022-11-16T18:48:58.493Z,8.06
2022-11-16T18:51:27.385Z,8.06
2022-11-16T18:53:54.731Z,8.17
2022-11-16T18:56:22.286Z,8.07
2022-11-16T18:58:51.426Z,8.16
2022-11-16T19:01:22.098Z,8.27
2022-11-16T19:03:50.003Z,8.29
2022-11-16T19:06:18.266Z,8.27
2022-11-16T19:08:50.403Z,8.22
2022-11-16T19:11:21.922Z,8.14
2022-11-16T19:13:52.985Z,8.31
2022-11-16T19:16:19.998Z,8.29
2022-11-16T19:18:46.854Z,8.07
2022-11-16T19:21:15.459Z,8.11
2022-11-16T19:23:44.565Z,8.08
2022-11-16T19:26:13.591Z,8.04
2022-11-16T19:28:42.695Z,8.06
2022-11-16T19:31:18.841Z,8.01
2022-11-16T19:33:45.940Z,8.09
2022-11-16T19:36:15.371Z,8.04
2022-11-16T19:38:43.150Z,8.00
2022-11-16T19:41:11.592Z,8.03
2022-11-16T19:43:38.948Z,8.03
2022-11-16T19:46:11.190Z,8.03
2022-11-16T19:48:38.965Z,8.04
2022-11-16T19:51:10.881Z,7.84
2022-11-16T19:53:39.999Z,7.85
2022-11-16T19:56:09.400Z,8.01
2022-11-16T19:58:38.416Z,7.89
2022-11-16T20:01:08.445Z,7.86
2022-11-16T20:03:38.480Z,7.87
2022-11-16T20:06:13.798Z,7.97
2022-11-16T20:08:42.342Z,7.90
2022-11-16T20:11:16.649Z,8.04
2022-11-16T20:13:43.939Z,7.93
2022-11-16T20:16:12.276Z,7.87
2022-11-16T20:18:40.597Z,7.94
2022-11-16T20:21:08.885Z,8.04
2022-11-16T20:23:36.341Z,8.08
2022-11-16T20:26:08.275Z,8.05
2022-11-16T20:28:37.081Z,8.05
2022-11-16T20:31:07.388Z,8.15
2022-11-16T20:33:35.086Z,8.21
2022-11-16T20:36:11.816Z,8.22
2022-11-16T20:38:39.401Z,8.22
2022-11-16T20:41:14.332Z,8.17
2022-11-16T20:43:42.396Z,8.24
2022-11-16T20:46:10.349Z,8.14
2022-11-16T20:48:38.433Z,8.13
2022-11-16T20:51:06.022Z,8.11
2022-11-16T20:53:33.463Z,8.09
2022-11-16T20:56:03.962Z,7.91
2022-11-16T20:58:31.749Z,7.83
2022-11-16T21:01:10.342Z,7.88
2022-11-16T21:03:37.771Z,7.85
2022-11-16T21:06:08.941Z,7.75
2022-11-16T21:08:36.799Z,7.88
2022-11-16T21:11:10.341Z,7.93
2022-11-16T21:13:55.918Z,7.88
2022-11-16T21:16:22.738Z,8.12
2022-11-16T21:18:49.766Z,8.12
2022-11-16T21:21:16.688Z,8.04
2022-11-16T21:23:47.442Z,8.11
2022-11-16T21:26:15.332Z,8.13
2022-11-16T21:28:44.907Z,8.16
2022-11-16T21:31:16.877Z,8.25
2022-11-16T21:33:47.663Z,7.95
2022-11-16T21:36:22.604Z,7.97
2022-11-16T21:38:49.843Z,7.87
2022-11-16T21:41:18.160Z,7.86
2022-11-16T21:43:45.289Z,7.98
2022-11-16T21:46:17.124Z,7.95
2022-11-16T21:48:44.641Z,7.92
2022-11-16T21:51:16.957Z,7.97
2022-11-16T21:53:44.440Z,7.94
2022-11-16T21:56:20.218Z,7.94
2022-11-16T21:58:47.753Z,8.02
2022-11-16T22:01:16.389Z,7.97
2022-11-16T22:03:43.479Z,7.98
2022-11-16T22:06:32.456Z,7.88
2022-11-16T22:08:59.459Z,7.78
2022-11-16T22:11:26.786Z,7.68
2022-11-16T22:13:53.636Z,7.79
2022-11-16T22:16:21.554Z,7.81
2022-11-16T22:18:48.311Z,7.73
2022-11-16T22:21:15.120Z,7.76
2022-11-16T22:23:42.076Z,7.78
2022-11-16T22:26:11.286Z,7.65
2022-11-16T22:28:38.718Z,7.72
2022-11-16T22:31:07.841Z,7.67
2022-11-16T22:33:35.070Z,7.70
2022-11-16T22:36:03.826Z,7.70
2022-11-16T22:38:31.253Z,7.72
2022-11-16T22:40:58.346Z,7.49
2022-11-16T22:43:27.600Z,7.60
2022-11-16T22:45:59.121Z,7.59
2022-11-16T22:48:33.330Z,7.61
2022-11-16T22:51:11.361Z,7.49
2022-11-16T22:53:38.553Z,7.40
2022-11-16T22:56:07.068Z,7.39
2022-11-16T22:58:34.679Z,7.41
2022-11-16T23:01:01.886Z,7.46
2022-11-16T23:03:29.528Z,7.44
2022-11-16T23:05:56.385Z,7.44
2022-11-16T23:08:25.134Z,7.29
2022-11-16T23:11:37.868Z,7.20
2022-11-16T23:14:23.948Z,7.32
2022-11-16T23:16:50.934Z,7.16
2022-11-16T23:19:37.902Z,7.25
2022-11-16T23:22:23.927Z,7.25
2022-11-16T23:25:09.517Z,7.04
2022-11-16T23:27:55.942Z,7.15
2022-11-16T23:30:23.381Z,7.27
2022-11-16T23:32:50.181Z,7.24
2022-11-16T23:35:17.487Z,7.30
2022-11-16T23:37:57.127Z,7.22
2022-11-16T23:40:34.851Z,7.08
2022-11-16T23:43:20.371Z,7.07
2022-11-16T23:45:47.386Z,6.97
2022-11-16T23:48:15.599Z,6.91
2022-11-16T23:50:43.007Z,6.97
2022-11-16T23:53:10.420Z,6.86
2022-11-16T23:55:40.982Z,6.90
2022-11-16T23:58:12.606Z,6.94
